Time;durP1;ratioP1;P1;durP2;ratioP2;P2;SDS_P1;SDS_P2;PMS_P1;PMS_P2;Temp;Humidity;BMP_temperature;BMP_pressure;BME280_temperature;BME280_humidity;BME280_pressure;Samples;Min_cycle;Max_cycle;Signal;HPM_P1;HPM_P2
2023/08/25 00:01:31;;;;;;;6.60;3.05;;;;;;;19.23;100.00;97012.13;4971923;28;20569;-61
2023/08/25 00:03:58;;;;;;;5.50;3.55;;;;;;;19.21;100.00;97022.63;5016047;28;20057;-62
2023/08/25 00:06:24;;;;;;;6.45;3.85;;;;;;;19.10;100.00;97025.63;4970551;28;20781;-62
2023/08/25 00:08:51;;;;;;;4.95;3.00;;;;;;;19.08;100.00;97027.09;4990863;28;20512;-62
2023/08/25 00:11:17;;;;;;;7.50;3.10;;;;;;;19.04;100.00;97021.41;4973123;28;20050;-61
2023/08/25 00:13:44;;;;;;;6.55;3.10;;;;;;;19.13;100.00;97021.47;4998545;28;20047;-61
2023/08/25 00:16:10;;;;;;;5.03;3.10;;;;;;;19.21;100.00;97009.69;4985805;28;20050;-62
2023/08/25 00:18:37;;;;;;;7.35;3.15;;;;;;;19.19;100.00;97003.72;4981929;28;20126;-62
2023/08/25 00:21:04;;;;;;;6.70;3.00;;;;;;;19.10;100.00;97008.38;4964560;28;20622;-62
2023/08/25 00:23:31;;;;;;;5.68;3.08;;;;;;;19.11;100.00;97010.00;4982172;28;20066;-62
2023/08/25 00:25:58;;;;;;;6.15;3.83;;;;;;;19.04;100.00;97010.41;4990804;28;20064;-61
2023/08/25 00:28:25;;;;;;;4.97;3.13;;;;;;;18.95;100.00;97015.84;4977779;28;20047;-62
2023/08/25 00:30:51;;;;;;;4.95;3.10;;;;;;;18.88;100.00;97020.19;4967787;28;20043;-62
2023/08/25 00:33:18;;;;;;;5.30;3.10;;;;;;;18.91;100.00;97008.59;4975700;28;20057;-62
2023/08/25 00:35:45;;;;;;;6.15;3.05;;;;;;;18.86;100.00;97009.53;4965779;28;20104;-61
2023/08/25 00:38:14;;;;;;;8.70;3.45;;;;;;;18.81;100.00;97009.66;4975761;28;20057;-61
2023/08/25 00:40:40;;;;;;;4.72;3.17;;;;;;;18.82;100.00;97017.59;4963414;28;20043;-62
2023/08/25 00:43:07;;;;;;;6.07;3.35;;;;;;;18.82;100.00;97003.06;4974833;28;20058;-62
2023/08/25 00:45:39;;;;;;;5.95;3.20;;;;;;;18.81;100.00;96999.53;4964890;28;20052;-61
2023/08/25 00:48:07;;;;;;;6.68;3.53;;;;;;;18.74;100.00;97001.91;4983025;28;20051;-61
2023/08/25 00:50:36;;;;;;;6.97;3.53;;;;;;;18.77;100.00;97001.28;4960437;28;20901;-62
2023/08/25 00:53:05;;;;;;;6.45;3.28;;;;;;;18.81;100.00;96993.22;4970381;28;20043;-62
2023/08/25 00:55:32;;;;;;;4.72;2.95;;;;;;;18.86;100.00;96993.06;4961831;28;20043;-62
2023/08/25 00:57:59;;;;;;;6.18;3.10;;;;;;;18.85;100.00;96988.72;4977340;28;20121;-61
2023/08/25 01:00:28;;;;;;;7.28;3.17;;;;;;;18.87;100.00;96977.44;4967846;28;20042;-61
2023/08/25 01:02:54;;;;;;;5.55;3.53;;;;;;;18.79;100.00;96993.53;4997822;28;20036;-62
2023/08/25 01:05:21;;;;;;;5.38;3.25;;;;;;;18.64;100.00;96992.00;4978490;28;20096;-62
2023/08/25 01:07:48;;;;;;;7.22;3.47;;;;;;;18.63;100.00;97017.81;4969851;28;20921;-62
2023/08/25 01:10:16;;;;;;;7.10;3.00;;;;;;;18.56;100.00;97026.47;4966889;28;20600;-62
2023/08/25 01:12:42;;;;;;;6.43;3.78;;;;;;;18.52;100.00;97019.19;4982840;28;20122;-62
2023/08/25 01:15:20;;;;;;;6.18;3.55;;;;;;;18.52;100.00;96995.31;4977950;28;20046;-62
2023/08/25 01:17:56;;;;;;;5.10;3.42;;;;;;;18.61;100.00;96987.13;4986485;28;20043;-62
2023/08/25 01:20:24;;;;;;;5.93;3.35;;;;;;;18.66;100.00;96972.50;4963339;28;20063;-62
2023/08/25 01:23:15;;;;;;;6.53;2.72;;;;;;;18.78;100.00;96964.50;4979791;28;20619;-62
2023/08/25 01:25:43;;;;;;;7.03;3.03;;;;;;;18.93;100.00;96960.53;4977425;28;20035;-62
2023/08/25 01:28:10;;;;;;;4.90;2.80;;;;;;;18.93;100.00;96957.78;4970059;28;20077;-61
2023/08/25 01:30:37;;;;;;;4.85;2.85;;;;;;;18.93;100.00;96960.53;4962856;28;20057;-62
2023/08/25 01:33:05;;;;;;;6.45;2.78;;;;;;;18.92;100.00;96960.81;4974409;28;20054;-62
2023/08/25 01:35:50;;;;;;;7.60;3.50;;;;;;;18.76;100.00;96958.50;4973850;28;20160;-62
2023/08/25 01:38:24;;;;;;;5.97;2.65;;;;;;;18.65;100.00;96960.72;4973791;28;20042;-63
2023/08/25 01:40:55;;;;;;;7.00;3.20;;;;;;;18.61;100.00;96964.41;4958239;28;20895;-62
2023/08/25 01:43:25;;;;;;;4.35;2.53;;;;;;;18.32;100.00;96982.97;4964220;28;20039;-62
2023/08/25 01:45:53;;;;;;;4.80;2.92;;;;;;;18.25;100.00;97001.75;4973228;28;20062;-62
2023/08/25 01:48:21;;;;;;;6.15;3.00;;;;;;;18.22;100.00;97010.59;5010105;28;20071;-62
2023/08/25 01:50:49;;;;;;;6.25;3.30;;;;;;;18.33;100.00;96998.28;4972782;28;20078;-62
2023/08/25 01:53:16;;;;;;;7.28;2.78;;;;;;;18.33;100.00;96999.06;4999178;28;20041;-62
2023/08/25 01:55:42;;;;;;;6.05;2.97;;;;;;;18.40;100.00;96984.94;4965706;28;20042;-62
2023/08/25 01:58:09;;;;;;;4.95;2.90;;;;;;;18.32;100.00;96972.78;4995485;28;20052;-62
2023/08/25 02:00:36;;;;;;;5.93;2.60;;;;;;;18.34;100.00;96964.25;4963989;28;20126;-62
2023/08/25 02:03:02;;;;;;;6.45;3.05;;;;;;;18.41;100.00;96955.59;4969789;28;20054;-62
2023/08/25 02:05:29;;;;;;;5.00;2.78;;;;;;;18.39;100.00;96953.16;4965472;28;20053;-62
2023/08/25 02:07:56;;;;;;;7.68;3.08;;;;;;;18.33;100.00;96949.72;4985044;28;20459;-62
2023/08/25 02:10:22;;;;;;;4.80;3.00;;;;;;;18.38;100.00;96950.72;4982384;28;20556;-62
2023/08/25 02:12:49;;;;;;;4.55;2.55;;;;;;;18.41;100.00;96944.63;4981714;28;20042;-62
2023/08/25 02:15:16;;;;;;;6.10;2.33;;;;;;;18.45;100.00;96943.69;4973387;28;20068;-62
2023/08/25 02:17:43;;;;;;;6.70;2.75;;;;;;;18.37;100.00;96940.91;4987327;28;20095;-62
2023/08/25 02:20:10;;;;;;;6.97;2.90;;;;;;;18.39;100.00;96935.91;4966892;28;20505;-62
2023/08/25 02:22:38;;;;;;;3.83;2.38;;;;;;;18.36;100.00;96933.81;4965551;28;20054;-62
2023/08/25 02:25:04;;;;;;;8.55;2.80;;;;;;;18.38;100.00;96934.28;4978530;28;20122;-62
2023/08/25 02:27:31;;;;;;;6.93;2.70;;;;;;;18.41;100.00;96933.66;4971209;28;20051;-62
2023/08/25 02:29:58;;;;;;;5.03;2.33;;;;;;;18.44;100.00;96931.13;5001473;28;20060;-62
2023/08/25 02:32:24;;;;;;;6.20;2.67;;;;;;;18.40;100.00;96926.56;4968002;28;20110;-62
2023/08/25 02:34:51;;;;;;;7.15;2.75;;;;;;;18.36;100.00;96920.91;4982889;28;20042;-62
2023/08/25 02:37:17;;;;;;;5.88;2.58;;;;;;;18.44;100.00;96924.81;4992338;28;20072;-62
2023/08/25 02:39:44;;;;;;;7.22;2.80;;;;;;;18.43;100.00;96920.47;4993417;28;20149;-61
2023/08/25 02:42:12;;;;;;;6.25;2.92;;;;;;;18.41;100.00;96918.03;4980132;28;20042;-61
2023/08/25 02:44:38;;;;;;;5.75;2.90;;;;;;;18.50;100.00;96926.28;4979932;28;20051;-61
2023/08/25 02:47:05;;;;;;;6.18;2.30;;;;;;;18.51;100.00;96922.44;4968490;28;20054;-61
2023/08/25 02:49:31;;;;;;;6.18;2.60;;;;;;;18.49;100.00;96908.22;4980930;28;20141;-61
2023/08/25 02:51:58;;;;;;;5.57;2.45;;;;;;;18.49;100.00;96902.75;4969390;28;20643;-61
2023/08/25 02:54:25;;;;;;;6.35;3.28;;;;;;;18.43;100.00;96893.84;4987676;28;20129;-61
2023/08/25 02:56:51;;;;;;;5.65;2.42;;;;;;;18.43;100.00;96893.84;4979071;28;20050;-61
2023/08/25 02:59:18;;;;;;;3.58;2.20;;;;;;;18.46;100.00;96886.94;4983786;28;20096;-62
2023/08/25 03:01:45;;;;;;;4.55;2.30;;;;;;;18.45;100.00;96888.06;4967816;28;20072;-61
2023/08/25 03:04:11;;;;;;;8.02;2.50;;;;;;;18.53;100.00;96889.22;4987179;28;20537;-61
2023/08/25 03:06:39;;;;;;;5.43;2.42;;;;;;;18.59;100.00;96885.22;4972070;28;20067;-61
2023/08/25 03:09:06;;;;;;;8.13;2.60;;;;;;;18.62;100.00;96892.81;4984018;28;20046;-61
2023/08/25 03:11:32;;;;;;;4.65;2.25;;;;;;;18.69;100.00;96878.66;4980948;28;20053;-61
2023/08/25 03:14:02;;;;;;;4.22;2.30;;;;;;;18.84;100.00;96872.69;5010856;28;20043;-61
2023/08/25 03:16:29;;;;;;;7.55;2.45;;;;;;;18.91;100.00;96877.72;4966394;28;20047;-61
2023/08/25 03:18:55;;;;;;;5.10;2.17;;;;;;;18.90;100.00;96864.34;4988488;28;20078;-61
2023/08/25 03:21:25;;;;;;;4.60;2.63;;;;;;;18.90;100.00;96864.34;4970737;28;20107;-61
2023/08/25 03:23:52;;;;;;;5.95;2.30;;;;;;;18.93;100.00;96861.75;4987545;28;20096;-61
2023/08/25 03:26:18;;;;;;;7.35;2.42;;;;;;;18.97;100.00;96856.44;4978148;28;20104;-61
2023/08/25 03:28:47;;;;;;;5.07;2.40;;;;;;;19.04;100.00;96845.81;4981212;28;20108;-61
2023/08/25 03:31:14;;;;;;;4.75;2.30;;;;;;;19.14;100.00;96850.22;4981287;28;20054;-61
2023/08/25 03:33:41;;;;;;;7.78;2.53;;;;;;;19.20;100.00;96848.91;4985402;28;20050;-61
2023/08/25 03:36:07;;;;;;;5.05;2.08;;;;;;;19.15;100.00;96851.81;4976593;28;20416;-61
2023/08/25 03:38:34;;;;;;;5.00;2.35;;;;;;;19.07;100.00;96845.22;4967572;28;20057;-61
2023/08/25 03:41:00;;;;;;;7.53;2.55;;;;;;;19.02;100.00;96848.03;4973790;28;20145;-61
2023/08/25 03:43:27;;;;;;;4.57;1.88;;;;;;;18.94;100.00;96849.66;4984089;28;20083;-61
2023/08/25 03:45:53;;;;;;;4.93;2.03;;;;;;;19.01;100.00;96846.44;4971573;28;20140;-61
2023/08/25 03:48:20;;;;;;;7.97;2.28;;;;;;;18.95;100.00;96842.25;4976547;28;20065;-61
2023/08/25 03:50:47;;;;;;;6.50;2.20;;;;;;;18.83;100.00;96838.19;4964240;28;20066;-61
2023/08/25 03:53:16;;;;;;;5.60;2.40;;;;;;;18.89;100.00;96824.31;5041971;28;20046;-61
2023/08/25 03:55:43;;;;;;;9.85;2.33;;;;;;;18.91;100.00;96824.81;4973944;28;20145;-61
2023/08/25 03:58:10;;;;;;;5.13;2.08;;;;;;;19.03;100.00;96816.75;4969855;28;20050;-60
2023/08/25 04:00:37;;;;;;;5.60;2.20;;;;;;;19.02;100.00;96817.09;4960923;28;20043;-61
2023/08/25 04:03:06;;;;;;;5.07;2.20;;;;;;;18.92;100.00;96805.28;4989057;28;20052;-61
2023/08/25 04:05:33;;;;;;;6.68;2.38;;;;;;;18.82;100.00;96806.41;5019720;28;20036;-61
2023/08/25 04:08:00;;;;;;;10.98;2.40;;;;;;;18.80;100.00;96797.69;4974778;28;20043;-61
2023/08/25 04:10:26;;;;;;;5.07;2.20;;;;;;;18.67;100.00;96791.22;4974395;28;20095;-61
2023/08/25 04:12:53;;;;;;;5.78;2.60;;;;;;;18.67;100.00;96793.97;4983535;28;20046;-61
2023/08/25 04:15:20;;;;;;;5.97;1.95;;;;;;;18.73;100.00;96791.88;4971502;28;20141;-61
2023/08/25 04:17:47;;;;;;;4.25;2.25;;;;;;;18.82;100.00;96792.69;4966586;28;20054;-61
2023/08/25 04:20:14;;;;;;;6.22;2.20;;;;;;;18.89;100.00;96799.63;4974249;28;20046;-61
2023/08/25 04:22:41;;;;;;;6.38;2.00;;;;;;;18.94;100.00;96805.78;4967560;28;20054;-61
2023/08/25 04:25:08;;;;;;;5.63;2.38;;;;;;;18.96;100.00;96800.78;4974172;28;20065;-62
2023/08/25 04:27:34;;;;;;;5.40;2.20;;;;;;;19.01;100.00;96794.31;4977254;28;20047;-60
2023/08/25 04:30:01;;;;;;;6.25;2.67;;;;;;;19.00;100.00;96795.44;5001496;28;20534;-61
2023/08/25 04:32:28;;;;;;;3.58;2.00;;;;;;;19.01;100.00;96791.56;4968543;28;20073;-61
2023/08/25 04:34:55;;;;;;;6.55;2.03;;;;;;;18.99;100.00;96788.34;5022714;28;20100;-61
2023/08/25 04:37:22;;;;;;;6.95;2.50;;;;;;;18.83;100.00;96798.97;5015056;28;20400;-61
2023/08/25 04:39:49;;;;;;;8.90;2.90;;;;;;;18.80;100.00;96792.19;4990911;28;20047;-61
2023/08/25 04:42:15;;;;;;;5.82;2.85;;;;;;;18.82;100.00;96778.97;4975473;28;20146;-61
2023/08/25 04:44:43;;;;;;;6.28;2.75;;;;;;;18.76;100.00;96779.47;4986412;28;20718;-61
2023/08/25 04:47:11;;;;;;;5.72;2.42;;;;;;;18.79;100.00;96779.63;4982686;28;20496;-61
2023/08/25 04:49:37;;;;;;;4.82;2.10;;;;;;;18.89;100.00;96769.44;4978020;28;20054;-61
2023/08/25 04:52:04;;;;;;;4.85;2.22;;;;;;;18.91;100.00;96780.94;4967227;28;20114;-61
2023/08/25 04:54:31;;;;;;;5.00;2.45;;;;;;;18.95;100.00;96779.94;5019014;28;20056;-61
2023/08/25 04:56:58;;;;;;;4.70;2.10;;;;;;;18.95;100.00;96782.69;4967524;28;20138;-61
2023/08/25 04:59:26;;;;;;;7.78;2.58;;;;;;;18.84;100.00;96779.44;5000186;28;20048;-61
2023/08/25 05:01:53;;;;;;;5.57;2.72;;;;;;;18.81;100.00;96776.56;4956278;28;20051;-62
2023/08/25 05:04:20;;;;;;;5.90;2.80;;;;;;;18.81;100.00;96766.41;5012883;28;20041;-61
2023/08/25 05:06:46;;;;;;;5.30;2.55;;;;;;;18.84;100.00;96757.50;4978141;28;20052;-61
2023/08/25 05:09:13;;;;;;;4.53;2.30;;;;;;;18.98;100.00;96759.28;4993265;28;20424;-61
2023/08/25 05:11:40;;;;;;;4.18;2.40;;;;;;;19.08;100.00;96763.69;4967714;28;20408;-61
2023/08/25 05:14:07;;;;;;;4.75;2.40;;;;;;;19.23;100.00;96765.94;4990659;28;20044;-61
2023/08/25 05:16:34;;;;;;;5.10;2.10;;;;;;;19.39;100.00;96765.47;4979764;28;20046;-61
2023/08/25 05:19:11;;;;;;;6.45;2.33;;;;;;;19.48;100.00;96765.44;4990204;28;20152;-61
2023/08/25 05:21:38;;;;;;;7.50;3.25;;;;;;;19.52;100.00;96766.41;4975164;28;20071;-61
2023/08/25 05:24:19;;;;;;;4.40;2.53;;;;;;;19.63;100.00;96762.19;4997081;28;20042;-61
2023/08/25 05:26:47;;;;;;;6.43;3.00;;;;;;;19.68;100.00;96765.88;4955904;28;20047;-61
2023/08/25 05:29:14;;;;;;;5.57;2.22;;;;;;;19.71;100.00;96770.72;4993946;28;20048;-61
2023/08/25 05:31:42;;;;;;;7.20;2.70;;;;;;;19.79;100.00;96774.59;4995764;28;20415;-61
2023/08/25 05:34:38;;;;;;;6.13;2.53;;;;;;;19.78;100.00;96782.00;5012085;28;20125;-60
2023/08/25 05:37:06;;;;;;;6.70;3.00;;;;;;;19.85;100.00;96787.00;4967733;28;20046;-60
2023/08/25 05:39:33;;;;;;;5.03;2.55;;;;;;;19.92;100.00;96803.78;4977013;28;20051;-60
2023/08/25 05:42:00;;;;;;;5.72;2.30;;;;;;;19.98;100.00;96808.00;4974809;28;20137;-60
2023/08/25 05:44:26;;;;;;;6.20;2.80;;;;;;;20.01;100.00;96810.09;4971202;28;20157;-59
2023/08/25 05:46:53;;;;;;;6.10;2.50;;;;;;;20.09;100.00;96829.63;4972451;28;20051;-60
2023/08/25 05:49:19;;;;;;;4.57;2.20;;;;;;;20.17;100.00;96845.28;4980120;28;20072;-60
2023/08/25 05:51:47;;;;;;;3.95;1.92;;;;;;;20.21;100.00;96854.50;4956718;28;20425;-60
2023/08/25 05:54:15;;;;;;;6.93;2.40;;;;;;;20.35;100.00;96891.97;5011933;28;20045;-60
2023/08/25 05:56:41;;;;;;;4.00;2.67;;;;;;;20.31;100.00;96948.72;4962197;28;20035;-60
2023/08/25 05:59:08;;;;;;;4.78;2.40;;;;;;;20.31;100.00;96976.22;5006665;28;20155;-60
2023/08/25 06:01:34;;;;;;;6.60;3.00;;;;;;;20.24;100.00;96982.22;4974761;28;20051;-60
2023/08/25 06:04:01;;;;;;;5.90;2.78;;;;;;;20.24;100.00;96984.97;5000375;28;20058;-59
2023/08/25 06:06:28;;;;;;;6.10;2.60;;;;;;;20.23;100.00;97024.59;4964666;28;20120;-59
2023/08/25 06:08:55;;;;;;;5.30;2.70;;;;;;;20.28;100.00;97093.16;4979464;28;20130;-60
2023/08/25 06:11:22;;;;;;;5.60;2.47;;;;;;;20.20;100.00;97140.69;4976207;28;20556;-59
2023/08/25 06:13:49;;;;;;;7.15;2.72;;;;;;;20.10;100.00;97128.88;4989656;28;20057;-60
2023/08/25 06:16:15;;;;;;;7.30;3.15;;;;;;;19.98;100.00;97117.66;4967175;28;20058;-60
2023/08/25 06:18:42;;;;;;;5.10;2.90;;;;;;;19.87;100.00;97087.72;4975559;28;20453;-59
2023/08/25 06:21:09;;;;;;;10.68;4.03;;;;;;;19.82;100.00;97065.06;4978628;28;20066;-59
2023/08/25 06:23:36;;;;;;;10.68;3.45;;;;;;;19.48;100.00;97100.38;4989009;28;20043;-61
2023/08/25 06:26:02;;;;;;;7.25;3.38;;;;;;;19.23;100.00;97109.00;4969306;28;20070;-61
2023/08/25 06:28:29;;;;;;;7.93;3.35;;;;;;;19.11;100.00;97111.53;4972858;28;20066;-61
2023/08/25 06:30:55;;;;;;;10.45;3.65;;;;;;;19.01;100.00;97085.13;4968740;28;20125;-61
2023/08/25 06:33:22;;;;;;;7.88;3.78;;;;;;;19.01;100.00;97076.88;4991838;28;20051;-61
2023/08/25 06:35:49;;;;;;;7.82;3.55;;;;;;;18.90;100.00;97067.31;4969971;28;20545;-61
2023/08/25 06:38:15;;;;;;;10.60;4.60;;;;;;;18.87;100.00;97065.22;4996801;28;20046;-62
2023/08/25 06:40:42;;;;;;;12.00;5.03;;;;;;;18.86;100.00;97083.59;4978439;28;20068;-61
2023/08/25 06:43:09;;;;;;;6.15;3.97;;;;;;;18.83;100.00;97074.06;4986101;28;20054;-61
2023/08/25 06:45:37;;;;;;;10.30;3.70;;;;;;;18.78;100.00;97089.81;4982809;28;20047;-61
2023/08/25 06:48:04;;;;;;;6.88;3.75;;;;;;;18.72;100.00;97105.59;4965516;28;20096;-61
2023/08/25 06:50:31;;;;;;;9.85;4.10;;;;;;;18.57;100.00;97118.56;4968711;28;20042;-61
2023/08/25 06:52:57;;;;;;;8.18;4.07;;;;;;;18.49;100.00;97127.53;4977314;28;20111;-61
2023/08/25 06:55:25;;;;;;;7.03;4.10;;;;;;;18.48;100.00;97114.13;4983568;28;20049;-61
2023/08/25 06:57:51;;;;;;;9.18;4.15;;;;;;;18.50;100.00;97123.66;4979559;28;20051;-61
2023/08/25 07:00:19;;;;;;;6.65;4.45;;;;;;;18.44;100.00;97130.41;4971892;28;20498;-61
2023/08/25 07:02:45;;;;;;;9.43;4.53;;;;;;;18.45;100.00;97101.84;4978804;28;20050;-61
2023/08/25 07:05:13;;;;;;;10.20;4.32;;;;;;;18.50;100.00;97098.19;4992673;28;20120;-61
2023/08/25 07:07:39;;;;;;;5.97;4.05;;;;;;;18.49;100.00;97113.81;4976631;28;20534;-61
2023/08/25 07:10:07;;;;;;;10.70;4.90;;;;;;;18.51;100.00;97146.41;4973199;28;20132;-62
2023/08/25 07:12:34;;;;;;;7.20;4.70;;;;;;;18.40;100.00;97193.25;4968225;28;20042;-62
2023/08/25 07:15:02;;;;;;;8.25;4.97;;;;;;;18.41;100.00;97194.88;4974881;28;20168;-61
2023/08/25 07:17:29;;;;;;;14.07;4.57;;;;;;;18.33;100.00;97201.06;4976062;28;20050;-61
2023/08/25 07:19:56;;;;;;;9.15;4.72;;;;;;;18.28;100.00;97228.59;4988036;28;20485;-61
2023/08/25 07:22:22;;;;;;;6.80;4.25;;;;;;;18.29;100.00;97228.28;4964996;28;20059;-62
2023/08/25 07:24:50;;;;;;;10.40;5.22;;;;;;;18.24;100.00;97242.09;5000141;28;20038;-61
2023/08/25 07:27:17;;;;;;;6.95;4.43;;;;;;;18.28;100.00;97262.28;4967251;28;20765;-61
2023/08/25 07:29:44;;;;;;;8.50;4.45;;;;;;;18.33;100.00;97256.69;4976604;28;20057;-61
2023/08/25 07:32:11;;;;;;;6.78;4.25;;;;;;;18.41;100.00;97238.72;5015201;28;20754;-60
2023/08/25 07:34:37;;;;;;;7.35;3.70;;;;;;;18.43;100.00;97205.53;5002880;28;20129;-61
2023/08/25 07:37:04;;;;;;;7.63;3.40;;;;;;;18.37;100.00;97217.72;4962366;28;20089;-61
2023/08/25 07:39:31;;;;;;;8.98;3.85;;;;;;;18.35;100.00;97207.06;4967582;28;20128;-61
2023/08/25 07:41:57;;;;;;;6.95;3.40;;;;;;;18.34;100.00;97202.69;4996072;28;20420;-61
2023/08/25 07:44:24;;;;;;;6.35;3.13;;;;;;;18.36;100.00;97188.69;5002306;28;20413;-60
2023/08/25 07:46:50;;;;;;;8.60;2.72;;;;;;;18.47;100.00;97190.09;4972403;28;20130;-61
2023/08/25 07:49:17;;;;;;;7.05;2.75;;;;;;;18.54;100.00;97175.97;5004592;28;20042;-61
2023/08/25 07:51:44;;;;;;;8.93;2.30;;;;;;;18.57;100.00;97178.06;4965359;28;20154;-61
2023/08/25 07:54:10;;;;;;;7.60;2.33;;;;;;;18.58;100.00;97188.72;5008672;28;20047;-61
2023/08/25 07:56:37;;;;;;;7.25;2.38;;;;;;;18.58;100.00;97194.19;4979567;28;20069;-62
2023/08/25 07:59:05;;;;;;;7.82;2.25;;;;;;;18.53;100.00;97197.06;4993373;28;20717;-62
2023/08/25 08:01:31;;;;;;;5.97;2.47;;;;;;;18.48;100.00;97180.75;4986934;28;20040;-62
2023/08/25 08:03:58;;;;;;;7.70;2.80;;;;;;;18.43;100.00;97186.34;5007360;28;20058;-62
2023/08/25 08:06:25;;;;;;;5.40;2.38;;;;;;;18.39;100.00;97194.34;4979156;28;20074;-62
2023/08/25 08:08:51;;;;;;;7.03;2.47;;;;;;;18.38;100.00;97192.75;4990986;28;20042;-62
2023/08/25 08:11:18;;;;;;;6.43;2.63;;;;;;;18.37;100.00;97182.91;4974540;28;20046;-62
2023/08/25 08:13:44;;;;;;;5.03;2.50;;;;;;;18.41;100.00;97181.16;5001614;28;20563;-62
2023/08/25 08:16:11;;;;;;;7.40;2.72;;;;;;;18.40;100.00;97179.56;4978051;28;20504;-62
2023/08/25 08:18:38;;;;;;;6.47;2.45;;;;;;;18.27;100.00;97205.84;4981961;28;20043;-62
2023/08/25 08:21:05;;;;;;;6.38;3.05;;;;;;;18.22;100.00;97205.97;4971184;28;20042;-62
2023/08/25 08:23:31;;;;;;;6.15;2.88;;;;;;;18.17;100.00;97206.09;4998551;28;20129;-62
2023/08/25 08:25:58;;;;;;;4.40;2.53;;;;;;;18.12;100.00;97195.19;4984886;28;20053;-62
2023/08/25 08:28:25;;;;;;;5.95;2.90;;;;;;;18.15;100.00;97180.91;4989290;28;20110;-62
2023/08/25 08:30:51;;;;;;;5.97;3.22;;;;;;;18.16;100.00;97146.91;4978144;28;20046;-62
2023/08/25 08:33:18;;;;;;;5.93;2.92;;;;;;;18.19;100.00;97124.38;4978864;28;20501;-62
2023/08/25 08:35:44;;;;;;;4.60;2.65;;;;;;;18.21;100.00;97108.44;4975762;28;20047;-62
2023/08/25 08:38:11;;;;;;;7.85;2.97;;;;;;;18.29;100.00;97094.00;4970852;28;20501;-62
2023/08/25 08:40:38;;;;;;;5.00;2.80;;;;;;;18.23;100.00;97094.41;4987833;28;20043;-62
2023/08/25 08:43:07;;;;;;;5.30;2.03;;;;;;;18.32;100.00;97060.47;4991563;28;20040;-62
2023/08/25 08:45:38;;;;;;;6.20;2.53;;;;;;;18.38;100.00;97038.44;4976393;28;20039;-62
2023/08/25 08:48:06;;;;;;;5.30;2.63;;;;;;;18.44;100.00;97024.31;4982979;28;20050;-62
2023/08/25 08:50:37;;;;;;;4.93;2.88;;;;;;;18.38;100.00;97011.84;4980565;28;20104;-62
2023/08/25 08:53:04;;;;;;;5.15;2.90;;;;;;;18.35;100.00;96979.56;4979687;28;20064;-62
2023/08/25 08:55:33;;;;;;;5.35;2.75;;;;;;;18.33;100.00;96987.31;4973081;28;20515;-62
2023/08/25 08:58:00;;;;;;;5.43;2.70;;;;;;;18.37;100.00;96969.13;4974042;28;20125;-62
2023/08/25 09:00:27;;;;;;;4.78;2.40;;;;;;;18.34;100.00;96945.06;4979366;28;20055;-62
2023/08/25 09:02:58;;;;;;;5.22;2.65;;;;;;;18.39;100.00;96936.72;4976811;28;20506;-62
2023/08/25 09:05:30;;;;;;;6.63;2.75;;;;;;;18.40;100.00;96948.50;4980315;28;20100;-62
2023/08/25 09:08:03;;;;;;;6.40;3.13;;;;;;;18.37;100.00;97032.16;4973272;28;20061;-62
2023/08/25 09:10:30;;;;;;;5.50;2.60;;;;;;;18.33;100.00;96990.84;4988298;28;20100;-62
2023/08/25 09:12:57;;;;;;;5.15;3.05;;;;;;;18.53;100.00;96983.22;4980062;28;20050;-62
2023/08/25 09:15:29;;;;;;;4.50;2.28;;;;;;;18.69;100.00;96964.44;4976625;28;20049;-62
2023/08/25 09:18:08;;;;;;;4.70;2.38;;;;;;;18.76;100.00;96941.25;4980696;28;20046;-62
2023/08/25 09:20:38;;;;;;;4.45;2.33;;;;;;;18.66;100.00;96942.34;4977802;28;20680;-62
2023/08/25 09:23:08;;;;;;;7.75;2.97;;;;;;;18.66;100.00;96945.06;4976163;28;20078;-62
2023/08/25 09:25:34;;;;;;;5.50;2.88;;;;;;;18.67;100.00;96922.00;4991313;28;20057;-62
2023/08/25 09:28:03;;;;;;;6.47;2.88;;;;;;;18.69;100.00;96893.16;4975600;28;20043;-62
2023/08/25 09:30:41;;;;;;;5.88;2.55;;;;;;;18.73;100.00;96898.81;5006668;28;20044;-62
2023/08/25 09:33:11;;;;;;;4.93;2.22;;;;;;;18.84;100.00;96900.13;4970455;28;20047;-62
2023/08/25 09:35:38;;;;;;;5.45;2.50;;;;;;;18.89;100.00;96909.34;4969443;28;20042;-62
2023/08/25 09:38:05;;;;;;;5.53;3.08;;;;;;;18.98;100.00;96908.25;4974502;28;20047;-62
2023/08/25 09:40:33;;;;;;;5.75;2.90;;;;;;;18.97;100.00;96905.81;4970931;28;20111;-62
2023/08/25 09:43:02;;;;;;;5.20;2.58;;;;;;;19.02;100.00;96893.91;4970791;28;20051;-62
2023/08/25 09:45:30;;;;;;;7.60;2.92;;;;;;;19.09;100.00;96892.31;4958250;28;20100;-62
2023/08/25 09:48:10;;;;;;;5.07;2.30;;;;;;;18.96;100.00;96894.06;4959011;28;20051;-62
2023/08/25 09:50:38;;;;;;;5.80;2.30;;;;;;;19.06;100.00;96892.16;4982702;28;20046;-62
2023/08/25 09:53:07;;;;;;;5.38;2.40;;;;;;;19.13;100.00;96892.50;4975159;28;20030;-62
2023/08/25 09:55:38;;;;;;;6.50;2.92;;;;;;;19.21;100.00;96913.63;4976436;28;20039;-62
2023/08/25 09:58:06;;;;;;;5.82;2.33;;;;;;;19.28;100.00;96917.88;4974470;28;20128;-62
2023/08/25 10:00:34;;;;;;;3.83;2.28;;;;;;;19.34;100.00;96922.06;5002630;28;20047;-62
2023/08/25 10:03:08;;;;;;;5.95;2.80;;;;;;;19.41;100.00;96919.66;4975976;28;20678;-62
2023/08/25 10:05:37;;;;;;;5.65;2.53;;;;;;;19.37;100.00;96932.41;5013170;28;20452;-62
2023/08/25 10:08:07;;;;;;;5.57;2.42;;;;;;;19.49;100.00;96920.78;4963821;28;20077;-62
2023/08/25 10:10:38;;;;;;;5.47;2.70;;;;;;;19.53;100.00;96923.72;4980012;28;20516;-62
2023/08/25 10:13:10;;;;;;;5.07;2.70;;;;;;;19.54;100.00;96915.16;4973718;28;20054;-62
2023/08/25 10:15:40;;;;;;;5.95;2.92;;;;;;;19.55;100.00;96918.69;4983719;28;20043;-62
2023/08/25 10:18:08;;;;;;;4.95;2.30;;;;;;;19.60;100.00;96904.78;4971312;28;20138;-62
2023/08/25 10:20:37;;;;;;;6.95;2.95;;;;;;;19.65;100.00;96895.59;4994579;28;20046;-62
2023/08/25 10:23:05;;;;;;;6.00;2.70;;;;;;;19.57;100.00;96911.75;4966901;28;20054;-61
2023/08/25 10:25:31;;;;;;;4.85;2.90;;;;;;;19.67;100.00;96916.13;4986997;28;20058;-62
2023/08/25 10:28:02;;;;;;;5.47;2.78;;;;;;;19.74;100.00;96948.59;4975279;28;20060;-62
2023/08/25 10:30:30;;;;;;;5.93;3.05;;;;;;;19.82;100.00;96952.44;4994800;28;20042;-61
2023/08/25 10:33:03;;;;;;;5.95;2.90;;;;;;;19.97;100.00;96953.94;4973351;28;20038;-61
2023/08/25 10:35:40;;;;;;;5.63;2.78;;;;;;;20.14;100.00;96964.94;4980173;28;20043;-61
2023/08/25 10:38:19;;;;;;;4.80;2.63;;;;;;;20.32;100.00;96967.66;4989755;28;20581;-61
2023/08/25 10:40:53;;;;;;;5.10;2.72;;;;;;;20.47;100.00;96971.84;4987823;28;20053;-61
2023/08/25 10:43:47;;;;;;;4.78;2.60;;;;;;;20.63;100.00;96955.59;4980855;28;20050;-61
2023/08/25 10:46:16;;;;;;;5.05;2.58;;;;;;;20.73;100.00;96959.94;4959969;28;20046;-61
2023/08/25 10:48:43;;;;;;;7.95;3.17;;;;;;;20.69;100.00;96958.16;5009676;28;20051;-61
2023/08/25 10:51:18;;;;;;;5.18;2.30;;;;;;;20.73;100.00;96957.19;4980269;28;20053;-62
2023/08/25 10:53:52;;;;;;;5.40;2.15;;;;;;;20.66;100.00;96951.38;4968495;28;20058;-62
2023/08/25 10:56:21;;;;;;;5.82;2.50;;;;;;;20.67;100.00;96944.75;4991835;28;20042;-62
2023/08/25 10:59:05;;;;;;;5.30;2.22;;;;;;;20.63;100.00;96944.59;4972077;28;20062;-62
2023/08/25 11:01:37;;;;;;;4.90;2.63;;;;;;;20.65;100.00;96947.03;4987119;28;20057;-59
2023/08/25 11:04:13;;;;;;;4.40;2.45;;;;;;;20.68;100.00;96951.88;5010516;28;20617;-60
2023/08/25 11:06:48;;;;;;;4.75;2.40;;;;;;;20.64;100.00;96950.91;4972272;28;20493;-59
2023/08/25 11:09:17;;;;;;;5.40;2.35;;;;;;;20.62;100.00;96934.75;4982448;28;20047;-56
2023/08/25 11:11:45;;;;;;;5.45;3.15;;;;;;;20.60;100.00;96933.47;4978169;28;20534;-55
2023/08/25 11:14:15;;;;;;;6.35;3.22;;;;;;;20.47;100.00;96925.09;4992013;28;20044;-55
2023/08/25 11:16:42;;;;;;;6.35;3.20;;;;;;;20.39;100.00;96904.72;4966046;28;20035;-57
2023/08/25 11:19:09;;;;;;;5.38;2.65;;;;;;;20.53;100.00;96934.75;4974151;28;20116;-57
2023/08/25 11:21:36;;;;;;;4.10;2.53;;;;;;;20.47;100.00;96929.75;4962617;28;20117;-54
2023/08/25 11:24:03;;;;;;;5.68;2.80;;;;;;;20.43;100.00;96928.81;4985737;28;20059;-57
2023/08/25 11:26:34;;;;;;;6.18;2.40;;;;;;;20.51;100.00;96931.53;4968725;28;20038;-54
2023/08/25 11:29:02;;;;;;;6.07;2.58;;;;;;;20.64;100.00;96935.19;4987819;28;20050;-57